sensor_id;sensor_type;location;lat;lon;timestamp;temperature;humidity
37240;DHT22;23130;48.760;9.178;2023-07-22T00:02:24;13.70;99.90
37240;DHT22;23130;48.760;9.178;2023-07-22T00:04:50;13.50;99.90
37240;DHT22;23130;48.760;9.178;2023-07-22T00:07:16;13.40;99.90
37240;DHT22;23130;48.760;9.178;2023-07-22T00:09:42;13.30;99.90
37240;DHT22;23130;48.760;9.178;2023-07-22T00:12:08;13.30;99.90
37240;DHT22;23130;48.760;9.178;2023-07-22T00:14:35;13.30;99.90
37240;DHT22;23130;48.760;9.178;2023-07-22T00:17:01;13.20;99.90
37240;DHT22;23130;48.760;9.178;2023-07-22T00:19:26;13.20;99.90
37240;DHT22;23130;48.760;9.178;2023-07-22T00:21:52;13.10;99.90
37240;DHT22;23130;48.760;9.178;2023-07-22T00:24:18;13.10;99.90
37240;DHT22;23130;48.760;9.178;2023-07-22T00:26:44;13.00;99.90
37240;DHT22;23130;48.760;9.178;2023-07-22T00:29:12;13.00;99.90
37240;DHT22;23130;48.760;9.178;2023-07-22T00:31:38;12.90;99.90
37240;DHT22;23130;48.760;9.178;2023-07-22T00:34:03;12.90;99.90
37240;DHT22;23130;48.760;9.178;2023-07-22T00:36:29;12.70;99.90
37240;DHT22;23130;48.760;9.178;2023-07-22T00:38:55;12.70;99.90
37240;DHT22;23130;48.760;9.178;2023-07-22T00:41:20;12.60;99.90
37240;DHT22;23130;48.760;9.178;2023-07-22T00:43:46;12.60;99.90
37240;DHT22;23130;48.760;9.178;2023-07-22T00:46:11;12.60;99.90
37240;DHT22;23130;48.760;9.178;2023-07-22T00:48:38;12.60;99.90
37240;DHT22;23130;48.760;9.178;2023-07-22T00:51:04;12.50;99.90
37240;DHT22;23130;48.760;9.178;2023-07-22T00:53:29;12.50;99.90
37240;DHT22;23130;48.760;9.178;2023-07-22T00:55:55;12.40;99.90
37240;DHT22;23130;48.760;9.178;2023-07-22T00:58:21;12.40;99.90
37240;DHT22;23130;48.760;9.178;2023-07-22T01:00:47;12.40;99.90
37240;DHT22;23130;48.760;9.178;2023-07-22T01:03:12;12.40;99.90
37240;DHT22;23130;48.760;9.178;2023-07-22T01:05:39;12.40;99.90
37240;DHT22;23130;48.760;9.178;2023-07-22T01:08:06;12.30;99.90
37240;DHT22;23130;48.760;9.178;2023-07-22T01:10:32;12.30;99.90
37240;DHT22;23130;48.760;9.178;2023-07-22T01:12:57;12.40;99.90
37240;DHT22;23130;48.760;9.178;2023-07-22T01:15:24;12.40;99.90
37240;DHT22;23130;48.760;9.178;2023-07-22T01:17:50;12.50;99.90
37240;DHT22;23130;48.760;9.178;2023-07-22T01:20:19;12.50;99.90
37240;DHT22;23130;48.760;9.178;2023-07-22T01:22:52;12.50;99.90
37240;DHT22;23130;48.760;9.178;2023-07-22T01:25:20;12.50;99.90
37240;DHT22;23130;48.760;9.178;2023-07-22T01:27:47;12.50;99.90
37240;DHT22;23130;48.760;9.178;2023-07-22T01:30:13;12.50;99.90
37240;DHT22;23130;48.760;9.178;2023-07-22T01:32:39;12.60;99.90
37240;DHT22;23130;48.760;9.178;2023-07-22T01:35:06;12.70;99.90
37240;DHT22;23130;48.760;9.178;2023-07-22T01:37:33;12.60;99.90
37240;DHT22;23130;48.760;9.178;2023-07-22T01:39:59;12.70;99.90
37240;DHT22;23130;48.760;9.178;2023-07-22T01:42:24;12.60;99.90
37240;DHT22;23130;48.760;9.178;2023-07-22T01:44:50;12.60;99.90
37240;DHT22;23130;48.760;9.178;2023-07-22T01:47:16;12.50;99.90
37240;DHT22;23130;48.760;9.178;2023-07-22T01:49:41;12.40;99.90
37240;DHT22;23130;48.760;9.178;2023-07-22T01:52:07;12.30;99.90
37240;DHT22;23130;48.760;9.178;2023-07-22T01:54:33;12.30;99.90
37240;DHT22;23130;48.760;9.178;2023-07-22T01:56:58;12.30;99.90
37240;DHT22;23130;48.760;9.178;2023-07-22T01:59:24;12.30;99.90
37240;DHT22;23130;48.760;9.178;2023-07-22T02:01:50;12.40;99.90
37240;DHT22;23130;48.760;9.178;2023-07-22T02:04:17;12.40;99.90
37240;DHT22;23130;48.760;9.178;2023-07-22T02:06:42;12.50;99.90
37240;DHT22;23130;48.760;9.178;2023-07-22T02:09:08;12.50;99.90
37240;DHT22;23130;48.760;9.178;2023-07-22T02:11:37;12.50;99.90
37240;DHT22;23130;48.760;9.178;2023-07-22T02:14:03;12.50;99.90
37240;DHT22;23130;48.760;9.178;2023-07-22T02:16:35;12.50;99.90
37240;DHT22;23130;48.760;9.178;2023-07-22T02:19:02;12.60;99.90
37240;DHT22;23130;48.760;9.178;2023-07-22T02:21:28;12.60;99.90
37240;DHT22;23130;48.760;9.178;2023-07-22T02:23:54;12.60;99.90
37240;DHT22;23130;48.760;9.178;2023-07-22T02:26:19;12.70;99.90
37240;DHT22;23130;48.760;9.178;2023-07-22T02:28:45;12.70;99.90
37240;DHT22;23130;48.760;9.178;2023-07-22T02:31:12;12.80;99.90
37240;DHT22;23130;48.760;9.178;2023-07-22T02:33:37;12.70;99.90
37240;DHT22;23130;48.760;9.178;2023-07-22T02:36:03;12.70;99.90
37240;DHT22;23130;48.760;9.178;2023-07-22T02:38:29;12.70;99.90
37240;DHT22;23130;48.760;9.178;2023-07-22T02:40:54;12.60;99.90
37240;DHT22;23130;48.760;9.178;2023-07-22T02:43:20;12.60;99.90
37240;DHT22;23130;48.760;9.178;2023-07-22T02:45:45;12.50;99.90
37240;DHT22;23130;48.760;9.178;2023-07-22T02:48:11;12.60;99.90
37240;DHT22;23130;48.760;9.178;2023-07-22T02:50:36;12.70;99.90
37240;DHT22;23130;48.760;9.178;2023-07-22T02:53:02;12.80;99.90
37240;DHT22;23130;48.760;9.178;2023-07-22T02:55:28;12.80;99.90
37240;DHT22;23130;48.760;9.178;2023-07-22T02:57:53;12.90;99.90
37240;DHT22;23130;48.760;9.178;2023-07-22T03:00:19;13.00;99.90
37240;DHT22;23130;48.760;9.178;2023-07-22T03:02:52;13.10;99.90
37240;DHT22;23130;48.760;9.178;2023-07-22T03:05:19;13.20;99.90
37240;DHT22;23130;48.760;9.178;2023-07-22T03:07:45;13.10;99.90
37240;DHT22;23130;48.760;9.178;2023-07-22T03:10:10;13.00;99.90
37240;DHT22;23130;48.760;9.178;2023-07-22T03:12:37;13.10;99.90
37240;DHT22;23130;48.760;9.178;2023-07-22T03:15:03;13.00;99.90
37240;DHT22;23130;48.760;9.178;2023-07-22T03:17:29;13.00;99.90
37240;DHT22;23130;48.760;9.178;2023-07-22T03:19:55;13.00;99.90
37240;DHT22;23130;48.760;9.178;2023-07-22T03:22:21;13.00;99.90
37240;DHT22;23130;48.760;9.178;2023-07-22T03:24:46;12.80;99.90
37240;DHT22;23130;48.760;9.178;2023-07-22T03:27:14;12.80;99.90
37240;DHT22;23130;48.760;9.178;2023-07-22T03:29:41;12.70;99.90
37240;DHT22;23130;48.760;9.178;2023-07-22T03:32:07;12.70;99.90
37240;DHT22;23130;48.760;9.178;2023-07-22T03:34:32;12.60;99.90
37240;DHT22;23130;48.760;9.178;2023-07-22T03:36:58;12.60;99.90
37240;DHT22;23130;48.760;9.178;2023-07-22T03:39:24;12.50;99.90
37240;DHT22;23130;48.760;9.178;2023-07-22T03:41:50;12.50;99.90
37240;DHT22;23130;48.760;9.178;2023-07-22T03:44:15;12.40;99.90
37240;DHT22;23130;48.760;9.178;2023-07-22T03:46:41;12.40;99.90
37240;DHT22;23130;48.760;9.178;2023-07-22T03:49:06;12.30;99.90
37240;DHT22;23130;48.760;9.178;2023-07-22T03:51:33;12.40;99.90
37240;DHT22;23130;48.760;9.178;2023-07-22T03:53:59;12.50;99.90
37240;DHT22;23130;48.760;9.178;2023-07-22T03:56:24;12.50;99.90
37240;DHT22;23130;48.760;9.178;2023-07-22T03:58:51;12.70;99.90
37240;DHT22;23130;48.760;9.178;2023-07-22T04:01:16;12.70;99.90
37240;DHT22;23130;48.760;9.178;2023-07-22T04:03:42;12.80;99.90
37240;DHT22;23130;48.760;9.178;2023-07-22T04:06:07;12.90;99.90
37240;DHT22;23130;48.760;9.178;2023-07-22T04:08:33;13.00;99.90
37240;DHT22;23130;48.760;9.178;2023-07-22T04:10:59;13.10;99.90
37240;DHT22;23130;48.760;9.178;2023-07-22T04:13:25;13.20;99.90
37240;DHT22;23130;48.760;9.178;2023-07-22T04:15:51;13.20;99.90
37240;DHT22;23130;48.760;9.178;2023-07-22T04:18:17;13.20;99.90
37240;DHT22;23130;48.760;9.178;2023-07-22T04:20:44;13.30;99.90
37240;DHT22;23130;48.760;9.178;2023-07-22T04:23:10;13.40;99.90
37240;DHT22;23130;48.760;9.178;2023-07-22T04:25:39;13.40;99.90
37240;DHT22;23130;48.760;9.178;2023-07-22T04:28:05;13.40;99.90
37240;DHT22;23130;48.760;9.178;2023-07-22T04:30:30;13.50;99.90
37240;DHT22;23130;48.760;9.178;2023-07-22T04:32:56;13.50;99.90
37240;DHT22;23130;48.760;9.178;2023-07-22T04:35:21;13.60;99.90
37240;DHT22;23130;48.760;9.178;2023-07-22T04:37:47;13.70;99.90
37240;DHT22;23130;48.760;9.178;2023-07-22T04:40:13;13.80;99.90
37240;DHT22;23130;48.760;9.178;2023-07-22T04:42:44;13.90;99.90
37240;DHT22;23130;48.760;9.178;2023-07-22T04:45:10;14.30;99.90
37240;DHT22;23130;48.760;9.178;2023-07-22T04:47:36;15.10;99.90
37240;DHT22;23130;48.760;9.178;2023-07-22T04:50:03;16.00;99.90
37240;DHT22;23130;48.760;9.178;2023-07-22T04:52:35;16.90;99.90
37240;DHT22;23130;48.760;9.178;2023-07-22T04:55:00;17.80;99.90
37240;DHT22;23130;48.760;9.178;2023-07-22T04:57:26;18.40;99.90
37240;DHT22;23130;48.760;9.178;2023-07-22T04:59:51;19.00;99.90
37240;DHT22;23130;48.760;9.178;2023-07-22T05:02:17;19.40;99.90
37240;DHT22;23130;48.760;9.178;2023-07-22T05:04:42;19.50;99.90
37240;DHT22;23130;48.760;9.178;2023-07-22T05:07:08;19.70;99.90
37240;DHT22;23130;48.760;9.178;2023-07-22T05:09:33;19.80;99.90
37240;DHT22;23130;48.760;9.178;2023-07-22T05:11:59;19.50;99.90
37240;DHT22;23130;48.760;9.178;2023-07-22T05:14:25;19.40;99.90
37240;DHT22;23130;48.760;9.178;2023-07-22T05:16:50;19.00;99.90
37240;DHT22;23130;48.760;9.178;2023-07-22T05:19:19;18.50;99.90
37240;DHT22;23130;48.760;9.178;2023-07-22T05:21:45;18.30;99.90
37240;DHT22;23130;48.760;9.178;2023-07-22T05:24:11;18.00;99.90
37240;DHT22;23130;48.760;9.178;2023-07-22T05:26:37;18.20;99.90
37240;DHT22;23130;48.760;9.178;2023-07-22T05:29:03;18.90;99.90
37240;DHT22;23130;48.760;9.178;2023-07-22T05:31:28;20.00;99.90
37240;DHT22;23130;48.760;9.178;2023-07-22T05:33:54;21.10;99.90
37240;DHT22;23130;48.760;9.178;2023-07-22T05:36:20;22.00;99.90
37240;DHT22;23130;48.760;9.178;2023-07-22T05:38:46;22.60;99.90
37240;DHT22;23130;48.760;9.178;2023-07-22T05:41:12;23.10;99.90
37240;DHT22;23130;48.760;9.178;2023-07-22T05:43:37;24.00;99.90
37240;DHT22;23130;48.760;9.178;2023-07-22T05:46:03;24.10;99.90
37240;DHT22;23130;48.760;9.178;2023-07-22T05:48:28;24.80;99.90
37240;DHT22;23130;48.760;9.178;2023-07-22T05:50:54;25.20;99.90
37240;DHT22;23130;48.760;9.178;2023-07-22T05:53:20;25.50;99.80
37240;DHT22;23130;48.760;9.178;2023-07-22T05:55:45;25.60;98.80
37240;DHT22;23130;48.760;9.178;2023-07-22T05:58:17;26.20;97.90
37240;DHT22;23130;48.760;9.178;2023-07-22T06:00:43;26.20;97.50
37240;DHT22;23130;48.760;9.178;2023-07-22T06:03:09;26.50;96.70
37240;DHT22;23130;48.760;9.178;2023-07-22T06:05:35;26.30;96.70
37240;DHT22;23130;48.760;9.178;2023-07-22T06:08:00;26.10;96.50
37240;DHT22;23130;48.760;9.178;2023-07-22T06:10:26;26.60;95.80
37240;DHT22;23130;48.760;9.178;2023-07-22T06:12:52;26.40;95.80
37240;DHT22;23130;48.760;9.178;2023-07-22T06:15:17;26.40;95.60
37240;DHT22;23130;48.760;9.178;2023-07-22T06:17:43;26.30;94.90
37240;DHT22;23130;48.760;9.178;2023-07-22T06:20:09;26.00;95.30
37240;DHT22;23130;48.760;9.178;2023-07-22T06:22:37;26.30;95.20
37240;DHT22;23130;48.760;9.178;2023-07-22T06:25:03;26.20;95.60
37240;DHT22;23130;48.760;9.178;2023-07-22T06:27:29;26.80;94.70
37240;DHT22;23130;48.760;9.178;2023-07-22T06:29:55;27.30;93.90
37240;DHT22;23130;48.760;9.178;2023-07-22T06:32:20;27.60;93.70
37240;DHT22;23130;48.760;9.178;2023-07-22T06:34:46;27.80;93.20
37240;DHT22;23130;48.760;9.178;2023-07-22T06:37:11;27.50;93.40
37240;DHT22;23130;48.760;9.178;2023-07-22T06:39:37;27.50;93.50
37240;DHT22;23130;48.760;9.178;2023-07-22T06:42:02;27.90;93.20
37240;DHT22;23130;48.760;9.178;2023-07-22T06:44:28;28.00;92.40
37240;DHT22;23130;48.760;9.178;2023-07-22T06:46:53;28.40;92.50
37240;DHT22;23130;48.760;9.178;2023-07-22T06:49:19;27.70;93.40
37240;DHT22;23130;48.760;9.178;2023-07-22T06:51:45;28.80;92.30
37240;DHT22;23130;48.760;9.178;2023-07-22T06:54:10;29.50;92.20
37240;DHT22;23130;48.760;9.178;2023-07-22T06:56:36;30.00;91.20
37240;DHT22;23130;48.760;9.178;2023-07-22T06:59:01;29.80;91.00
37240;DHT22;23130;48.760;9.178;2023-07-22T07:01:27;29.80;90.80
37240;DHT22;23130;48.760;9.178;2023-07-22T07:03:52;29.80;90.50
37240;DHT22;23130;48.760;9.178;2023-07-22T07:06:18;30.10;90.30
37240;DHT22;23130;48.760;9.178;2023-07-22T07:08:43;30.30;90.10
37240;DHT22;23130;48.760;9.178;2023-07-22T07:11:09;30.30;89.60
37240;DHT22;23130;48.760;9.178;2023-07-22T07:13:34;30.40;88.50
37240;DHT22;23130;48.760;9.178;2023-07-22T07:16:23;30.40;87.80
37240;DHT22;23130;48.760;9.178;2023-07-22T07:18:50;30.00;88.50
37240;DHT22;23130;48.760;9.178;2023-07-22T07:21:16;29.70;90.00
37240;DHT22;23130;48.760;9.178;2023-07-22T07:23:42;30.20;90.00
37240;DHT22;23130;48.760;9.178;2023-07-22T07:26:07;30.40;87.80
37240;DHT22;23130;48.760;9.178;2023-07-22T07:28:33;30.50;87.60
37240;DHT22;23130;48.760;9.178;2023-07-22T07:30:59;30.10;87.40
37240;DHT22;23130;48.760;9.178;2023-07-22T07:33:25;30.50;86.80
37240;DHT22;23130;48.760;9.178;2023-07-22T07:35:51;30.50;87.20
37240;DHT22;23130;48.760;9.178;2023-07-22T07:38:16;30.00;85.90
37240;DHT22;23130;48.760;9.178;2023-07-22T07:40:42;29.90;86.60
37240;DHT22;23130;48.760;9.178;2023-07-22T07:43:08;29.80;87.30
37240;DHT22;23130;48.760;9.178;2023-07-22T07:45:37;30.10;83.60
37240;DHT22;23130;48.760;9.178;2023-07-22T07:48:04;30.10;84.90
37240;DHT22;23130;48.760;9.178;2023-07-22T07:50:29;30.30;82.70
37240;DHT22;23130;48.760;9.178;2023-07-22T07:52:55;30.30;82.60
37240;DHT22;23130;48.760;9.178;2023-07-22T07:55:20;30.30;82.40
37240;DHT22;23130;48.760;9.178;2023-07-22T07:57:46;30.20;82.30
37240;DHT22;23130;48.760;9.178;2023-07-22T08:00:12;30.20;81.90
37240;DHT22;23130;48.760;9.178;2023-07-22T08:02:37;30.00;80.40
37240;DHT22;23130;48.760;9.178;2023-07-22T08:05:03;29.30;82.10
37240;DHT22;23130;48.760;9.178;2023-07-22T08:07:29;29.50;82.80
37240;DHT22;23130;48.760;9.178;2023-07-22T08:09:54;29.50;81.20
37240;DHT22;23130;48.760;9.178;2023-07-22T08:12:22;29.50;81.10
37240;DHT22;23130;48.760;9.178;2023-07-22T08:14:47;29.50;80.90
37240;DHT22;23130;48.760;9.178;2023-07-22T08:17:13;29.50;80.70
37240;DHT22;23130;48.760;9.178;2023-07-22T08:19:38;29.40;80.40
37240;DHT22;23130;48.760;9.178;2023-07-22T08:22:04;29.70;80.20
37240;DHT22;23130;48.760;9.178;2023-07-22T08:24:30;29.40;79.70
37240;DHT22;23130;48.760;9.178;2023-07-22T08:26:55;29.00;81.50
37240;DHT22;23130;48.760;9.178;2023-07-22T08:29:21;29.00;79.50
37240;DHT22;23130;48.760;9.178;2023-07-22T08:31:46;28.50;81.00
37240;DHT22;23130;48.760;9.178;2023-07-22T08:34:12;28.20;81.90
37240;DHT22;23130;48.760;9.178;2023-07-22T08:36:37;27.90;83.60
37240;DHT22;23130;48.760;9.178;2023-07-22T08:39:03;27.30;82.80
37240;DHT22;23130;48.760;9.178;2023-07-22T08:41:29;26.90;83.40
37240;DHT22;23130;48.760;9.178;2023-07-22T08:43:59;26.40;83.90
37240;DHT22;23130;48.760;9.178;2023-07-22T08:46:28;26.20;86.30
37240;DHT22;23130;48.760;9.178;2023-07-22T08:48:56;25.90;86.00
37240;DHT22;23130;48.760;9.178;2023-07-22T08:51:25;25.80;86.00
37240;DHT22;23130;48.760;9.178;2023-07-22T08:53:54;25.70;87.50
37240;DHT22;23130;48.760;9.178;2023-07-22T08:56:23;25.50;84.80
37240;DHT22;23130;48.760;9.178;2023-07-22T08:58:51;25.60;84.90
37240;DHT22;23130;48.760;9.178;2023-07-22T09:01:17;25.70;85.20
37240;DHT22;23130;48.760;9.178;2023-07-22T09:03:43;26.00;85.80
37240;DHT22;23130;48.760;9.178;2023-07-22T09:06:10;26.10;83.20
37240;DHT22;23130;48.760;9.178;2023-07-22T09:08:36;26.10;84.00
37240;DHT22;23130;48.760;9.178;2023-07-22T09:11:02;26.00;82.90
37240;DHT22;23130;48.760;9.178;2023-07-22T09:13:28;26.00;81.70
37240;DHT22;23130;48.760;9.178;2023-07-22T09:15:57;25.60;80.60
37240;DHT22;23130;48.760;9.178;2023-07-22T09:18:23;25.20;80.50
37240;DHT22;23130;48.760;9.178;2023-07-22T09:20:49;25.00;80.50
37240;DHT22;23130;48.760;9.178;2023-07-22T09:23:14;24.70;81.30
37240;DHT22;23130;48.760;9.178;2023-07-22T09:25:41;24.60;82.20
37240;DHT22;23130;48.760;9.178;2023-07-22T09:28:07;24.40;83.10
37240;DHT22;23130;48.760;9.178;2023-07-22T09:30:37;24.20;82.80
37240;DHT22;23130;48.760;9.178;2023-07-22T09:33:26;24.30;82.90
37240;DHT22;23130;48.760;9.178;2023-07-22T09:35:54;24.50;84.20
37240;DHT22;23130;48.760;9.178;2023-07-22T09:38:24;24.40;82.70
37240;DHT22;23130;48.760;9.178;2023-07-22T09:40:50;24.40;83.00
37240;DHT22;23130;48.760;9.178;2023-07-22T09:43:16;24.60;82.40
37240;DHT22;23130;48.760;9.178;2023-07-22T09:45:42;24.80;83.30
37240;DHT22;23130;48.760;9.178;2023-07-22T09:48:11;24.90;83.60
37240;DHT22;23130;48.760;9.178;2023-07-22T09:50:37;25.20;82.90
37240;DHT22;23130;48.760;9.178;2023-07-22T09:53:03;25.40;82.60
37240;DHT22;23130;48.760;9.178;2023-07-22T09:55:31;25.60;85.90
37240;DHT22;23130;48.760;9.178;2023-07-22T09:57:59;26.00;81.80
37240;DHT22;23130;48.760;9.178;2023-07-22T10:00:29;26.00;81.70
37240;DHT22;23130;48.760;9.178;2023-07-22T10:02:57;26.30;84.00
37240;DHT22;23130;48.760;9.178;2023-07-22T10:05:25;26.50;82.20
37240;DHT22;23130;48.760;9.178;2023-07-22T10:07:56;26.50;80.50
37240;DHT22;23130;48.760;9.178;2023-07-22T10:10:35;26.40;79.70
37240;DHT22;23130;48.760;9.178;2023-07-22T10:13:02;26.60;79.40
37240;DHT22;23130;48.760;9.178;2023-07-22T10:15:30;26.90;79.10
37240;DHT22;23130;48.760;9.178;2023-07-22T10:17:56;27.10;77.90
37240;DHT22;23130;48.760;9.178;2023-07-22T10:20:23;27.10;79.60
37240;DHT22;23130;48.760;9.178;2023-07-22T10:22:50;26.90;77.70
37240;DHT22;23130;48.760;9.178;2023-07-22T10:25:18;26.90;77.80
37240;DHT22;23130;48.760;9.178;2023-07-22T10:27:44;26.70;77.00
37240;DHT22;23130;48.760;9.178;2023-07-22T10:30:14;26.80;77.90
37240;DHT22;23130;48.760;9.178;2023-07-22T10:38:11;26.50;79.50
37240;DHT22;23130;48.760;9.178;2023-07-22T10:43:14;26.60;78.00
37240;DHT22;23130;48.760;9.178;2023-07-22T10:45:51;26.80;79.40
37240;DHT22;23130;48.760;9.178;2023-07-22T10:48:21;27.00;77.60
37240;DHT22;23130;48.760;9.178;2023-07-22T10:53:21;27.20;77.50
37240;DHT22;23130;48.760;9.178;2023-07-22T10:56:11;27.20;77.80
37240;DHT22;23130;48.760;9.178;2023-07-22T11:04:13;26.80;79.70
37240;DHT22;23130;48.760;9.178;2023-07-22T11:14:27;27.00;79.30
37240;DHT22;23130;48.760;9.178;2023-07-22T11:16:53;26.60;78.30
37240;DHT22;23130;48.760;9.178;2023-07-22T11:19:21;26.60;79.50
37240;DHT22;23130;48.760;9.178;2023-07-22T11:21:48;26.20;79.80
37240;DHT22;23130;48.760;9.178;2023-07-22T11:24:15;25.90;79.20
37240;DHT22;23130;48.760;9.178;2023-07-22T11:26:40;25.80;79.30
37240;DHT22;23130;48.760;9.178;2023-07-22T11:29:08;25.70;80.20
37240;DHT22;23130;48.760;9.178;2023-07-22T11:31:38;25.70;80.40
37240;DHT22;23130;48.760;9.178;2023-07-22T11:34:08;25.50;80.90
37240;DHT22;23130;48.760;9.178;2023-07-22T11:36:34;25.70;80.90
37240;DHT22;23130;48.760;9.178;2023-07-22T11:39:21;25.90;81.00
37240;DHT22;23130;48.760;9.178;2023-07-22T11:41:48;26.00;80.60
37240;DHT22;23130;48.760;9.178;2023-07-22T11:44:17;26.20;81.00
37240;DHT22;23130;48.760;9.178;2023-07-22T11:47:02;26.30;81.60
37240;DHT22;23130;48.760;9.178;2023-07-22T11:49:37;26.50;83.50
37240;DHT22;23130;48.760;9.178;2023-07-22T11:52:07;26.40;80.30
37240;DHT22;23130;48.760;9.178;2023-07-22T11:54:34;26.30;81.40
37240;DHT22;23130;48.760;9.178;2023-07-22T11:59:53;26.20;82.70
37240;DHT22;23130;48.760;9.178;2023-07-22T12:02:24;26.30;82.90
37240;DHT22;23130;48.760;9.178;2023-07-22T12:04:53;26.60;81.60
37240;DHT22;23130;48.760;9.178;2023-07-22T12:07:30;26.90;83.10
37240;DHT22;23130;48.760;9.178;2023-07-22T12:09:58;27.10;82.00
37240;DHT22;23130;48.760;9.178;2023-07-22T12:12:43;26.70;80.20
37240;DHT22;23130;48.760;9.178;2023-07-22T12:15:15;26.40;80.60
37240;DHT22;23130;48.760;9.178;2023-07-22T12:18:00;26.10;81.60
37240;DHT22;23130;48.760;9.178;2023-07-22T12:20:31;25.60;81.50
37240;DHT22;23130;48.760;9.178;2023-07-22T12:22:59;25.70;82.50
37240;DHT22;23130;48.760;9.178;2023-07-22T12:25:25;25.90;83.10
37240;DHT22;23130;48.760;9.178;2023-07-22T12:27:50;26.10;82.00
37240;DHT22;23130;48.760;9.178;2023-07-22T12:30:16;26.20;81.60
37240;DHT22;23130;48.760;9.178;2023-07-22T12:32:42;26.40;81.40
37240;DHT22;23130;48.760;9.178;2023-07-22T12:35:08;26.50;80.40
37240;DHT22;23130;48.760;9.178;2023-07-22T12:37:34;26.40;80.00
37240;DHT22;23130;48.760;9.178;2023-07-22T12:40:00;26.50;82.30
37240;DHT22;23130;48.760;9.178;2023-07-22T12:42:25;26.70;82.80
37240;DHT22;23130;48.760;9.178;2023-07-22T12:44:51;26.60;80.80
37240;DHT22;23130;48.760;9.178;2023-07-22T12:47:17;26.70;79.70
37240;DHT22;23130;48.760;9.178;2023-07-22T12:49:43;26.60;79.70
37240;DHT22;23130;48.760;9.178;2023-07-22T12:52:09;26.50;79.70
37240;DHT22;23130;48.760;9.178;2023-07-22T12:54:36;26.30;78.90
37240;DHT22;23130;48.760;9.178;2023-07-22T12:57:02;26.20;79.10
37240;DHT22;23130;48.760;9.178;2023-07-22T12:59:27;26.10;78.60
37240;DHT22;23130;48.760;9.178;2023-07-22T13:01:53;26.10;79.30
37240;DHT22;23130;48.760;9.178;2023-07-22T13:04:19;26.20;78.60
37240;DHT22;23130;48.760;9.178;2023-07-22T13:06:45;26.60;78.50
37240;DHT22;23130;48.760;9.178;2023-07-22T13:09:10;26.70;77.80
37240;DHT22;23130;48.760;9.178;2023-07-22T13:11:36;26.70;77.80
37240;DHT22;23130;48.760;9.178;2023-07-22T13:14:02;26.70;78.50
37240;DHT22;23130;48.760;9.178;2023-07-22T13:16:27;26.80;78.40
37240;DHT22;23130;48.760;9.178;2023-07-22T13:18:53;26.90;78.00
37240;DHT22;23130;48.760;9.178;2023-07-22T13:21:19;27.20;77.70
37240;DHT22;23130;48.760;9.178;2023-07-22T13:23:44;27.70;78.00
37240;DHT22;23130;48.760;9.178;2023-07-22T13:26:10;27.80;76.40
37240;DHT22;23130;48.760;9.178;2023-07-22T13:28:35;27.80;75.70
37240;DHT22;23130;48.760;9.178;2023-07-22T13:31:03;28.00;76.50
37240;DHT22;23130;48.760;9.178;2023-07-22T13:33:28;28.20;77.30
37240;DHT22;23130;48.760;9.178;2023-07-22T13:35:56;27.90;74.80
37240;DHT22;23130;48.760;9.178;2023-07-22T13:38:22;27.70;75.50
37240;DHT22;23130;48.760;9.178;2023-07-22T13:40:47;27.40;75.20
37240;DHT22;23130;48.760;9.178;2023-07-22T13:43:13;27.20;75.90
37240;DHT22;23130;48.760;9.178;2023-07-22T13:45:38;27.30;76.80
37240;DHT22;23130;48.760;9.178;2023-07-22T13:48:04;27.40;75.90
37240;DHT22;23130;48.760;9.178;2023-07-22T13:50:30;27.40;74.60
37240;DHT22;23130;48.760;9.178;2023-07-22T13:52:56;27.50;75.30
37240;DHT22;23130;48.760;9.178;2023-07-22T13:55:21;27.70;76.30
37240;DHT22;23130;48.760;9.178;2023-07-22T13:57:47;27.60;75.80
37240;DHT22;23130;48.760;9.178;2023-07-22T14:00:13;27.60;75.20
37240;DHT22;23130;48.760;9.178;2023-07-22T14:02:39;27.60;75.10
37240;DHT22;23130;48.760;9.178;2023-07-22T14:05:05;27.60;75.20
37240;DHT22;23130;48.760;9.178;2023-07-22T14:07:31;27.50;76.00
37240;DHT22;23130;48.760;9.178;2023-07-22T14:09:56;27.50;76.00
37240;DHT22;23130;48.760;9.178;2023-07-22T14:12:22;27.30;75.60
37240;DHT22;23130;48.760;9.178;2023-07-22T14:14:47;27.20;76.50
37240;DHT22;23130;48.760;9.178;2023-07-22T14:17:13;27.00;76.10
37240;DHT22;23130;48.760;9.178;2023-07-22T14:19:39;26.90;76.30
37240;DHT22;23130;48.760;9.178;2023-07-22T14:22:04;26.70;77.60
37240;DHT22;23130;48.760;9.178;2023-07-22T14:24:30;27.00;78.20
37240;DHT22;23130;48.760;9.178;2023-07-22T14:26:56;27.30;77.00
37240;DHT22;23130;48.760;9.178;2023-07-22T14:29:21;27.40;77.00
37240;DHT22;23130;48.760;9.178;2023-07-22T14:31:47;27.60;76.00
37240;DHT22;23130;48.760;9.178;2023-07-22T14:34:13;27.80;77.20
37240;DHT22;23130;48.760;9.178;2023-07-22T14:36:38;27.90;77.70
37240;DHT22;23130;48.760;9.178;2023-07-22T14:39:04;27.80;76.30
37240;DHT22;23130;48.760;9.178;2023-07-22T14:41:30;27.60;75.70
37240;DHT22;23130;48.760;9.178;2023-07-22T14:43:56;27.40;76.10
37240;DHT22;23130;48.760;9.178;2023-07-22T14:46:22;27.40;76.10
37240;DHT22;23130;48.760;9.178;2023-07-22T14:48:48;27.40;77.30
37240;DHT22;23130;48.760;9.178;2023-07-22T14:51:13;27.60;77.40
37240;DHT22;23130;48.760;9.178;2023-07-22T14:53:39;27.80;74.70
37240;DHT22;23130;48.760;9.178;2023-07-22T14:56:05;27.50;75.60
37240;DHT22;23130;48.760;9.178;2023-07-22T14:58:32;27.40;74.60
37240;DHT22;23130;48.760;9.178;2023-07-22T15:00:58;27.20;75.30
37240;DHT22;23130;48.760;9.178;2023-07-22T15:03:23;27.20;75.50
37240;DHT22;23130;48.760;9.178;2023-07-22T15:05:49;27.30;75.60
37240;DHT22;23130;48.760;9.178;2023-07-22T15:08:15;27.40;75.50
37240;DHT22;23130;48.760;9.178;2023-07-22T15:10:41;27.30;75.40
37240;DHT22;23130;48.760;9.178;2023-07-22T15:13:06;27.10;75.80
37240;DHT22;23130;48.760;9.178;2023-07-22T15:15:32;26.90;76.50
37240;DHT22;23130;48.760;9.178;2023-07-22T15:17:57;26.70;77.20
37240;DHT22;23130;48.760;9.178;2023-07-22T15:20:23;26.60;77.20
37240;DHT22;23130;48.760;9.178;2023-07-22T15:22:49;26.50;78.20
37240;DHT22;23130;48.760;9.178;2023-07-22T15:25:14;26.50;77.60
37240;DHT22;23130;48.760;9.178;2023-07-22T15:27:40;26.60;76.70
37240;DHT22;23130;48.760;9.178;2023-07-22T15:30:06;26.70;77.20
37240;DHT22;23130;48.760;9.178;2023-07-22T15:32:32;26.90;76.80
37240;DHT22;23130;48.760;9.178;2023-07-22T15:34:58;27.00;75.80
37240;DHT22;23130;48.760;9.178;2023-07-22T15:37:23;26.90;75.80
37240;DHT22;23130;48.760;9.178;2023-07-22T15:39:50;27.00;75.90
37240;DHT22;23130;48.760;9.178;2023-07-22T15:42:16;26.90;76.30
37240;DHT22;23130;48.760;9.178;2023-07-22T15:44:42;27.00;76.10
37240;DHT22;23130;48.760;9.178;2023-07-22T15:47:07;27.00;75.90
37240;DHT22;23130;48.760;9.178;2023-07-22T15:49:33;27.00;76.90
37240;DHT22;23130;48.760;9.178;2023-07-22T15:51:58;27.10;76.20
37240;DHT22;23130;48.760;9.178;2023-07-22T15:54:24;27.00;75.50